sensor_id;sensor_type;location;lat;lon;timestamp;temperature;humidity
3281;DHT22;1652;51.318;6.202;2023-05-07T00:02:13;15.10;99.90
3281;DHT22;1652;51.318;6.202;2023-05-07T00:04:40;15.10;99.90
3281;DHT22;1652;51.318;6.202;2023-05-07T00:07:07;15.10;99.90
3281;DHT22;1652;51.318;6.202;2023-05-07T00:09:35;15.00;99.90
3281;DHT22;1652;51.318;6.202;2023-05-07T00:12:02;14.90;99.90
3281;DHT22;1652;51.318;6.202;2023-05-07T00:14:30;15.00;99.90
3281;DHT22;1652;51.318;6.202;2023-05-07T00:16:57;14.80;99.90
3281;DHT22;1652;51.318;6.202;2023-05-07T00:19:24;14.80;99.90
3281;DHT22;1652;51.318;6.202;2023-05-07T00:21:51;14.80;99.90
3281;DHT22;1652;51.318;6.202;2023-05-07T00:24:20;15.00;99.90
3281;DHT22;1652;51.318;6.202;2023-05-07T00:26:47;15.00;99.90
3281;DHT22;1652;51.318;6.202;2023-05-07T00:29:14;15.10;99.90
3281;DHT22;1652;51.318;6.202;2023-05-07T00:31:40;15.00;99.90
3281;DHT22;1652;51.318;6.202;2023-05-07T00:34:07;14.90;99.90
3281;DHT22;1652;51.318;6.202;2023-05-07T00:36:34;14.80;99.90
3281;DHT22;1652;51.318;6.202;2023-05-07T00:39:01;14.60;99.90
3281;DHT22;1652;51.318;6.202;2023-05-07T00:41:30;14.50;99.90
3281;DHT22;1652;51.318;6.202;2023-05-07T00:43:59;14.70;99.90
3281;DHT22;1652;51.318;6.202;2023-05-07T00:46:28;14.70;99.90
3281;DHT22;1652;51.318;6.202;2023-05-07T00:48:57;14.70;99.90
3281;DHT22;1652;51.318;6.202;2023-05-07T00:51:25;14.70;99.90
3281;DHT22;1652;51.318;6.202;2023-05-07T00:53:53;14.70;99.90
3281;DHT22;1652;51.318;6.202;2023-05-07T00:56:21;14.50;99.90
3281;DHT22;1652;51.318;6.202;2023-05-07T00:58:49;14.60;99.90
3281;DHT22;1652;51.318;6.202;2023-05-07T01:01:16;14.50;99.90
3281;DHT22;1652;51.318;6.202;2023-05-07T01:03:43;14.50;99.90
3281;DHT22;1652;51.318;6.202;2023-05-07T01:06:12;14.50;99.90
3281;DHT22;1652;51.318;6.202;2023-05-07T01:08:41;14.60;99.90
3281;DHT22;1652;51.318;6.202;2023-05-07T01:11:08;14.70;99.90
3281;DHT22;1652;51.318;6.202;2023-05-07T01:13:37;14.70;99.90
3281;DHT22;1652;51.318;6.202;2023-05-07T01:16:05;14.60;99.90
3281;DHT22;1652;51.318;6.202;2023-05-07T01:18:32;14.60;99.90
3281;DHT22;1652;51.318;6.202;2023-05-07T01:20:59;14.60;99.90
3281;DHT22;1652;51.318;6.202;2023-05-07T01:23:27;14.50;99.90
3281;DHT22;1652;51.318;6.202;2023-05-07T01:25:55;14.40;99.90
3281;DHT22;1652;51.318;6.202;2023-05-07T01:28:22;14.40;99.90
3281;DHT22;1652;51.318;6.202;2023-05-07T01:31:03;14.40;99.90
3281;DHT22;1652;51.318;6.202;2023-05-07T01:33:34;14.40;99.90
3281;DHT22;1652;51.318;6.202;2023-05-07T01:36:02;14.40;99.90
3281;DHT22;1652;51.318;6.202;2023-05-07T01:38:33;14.40;99.90
3281;DHT22;1652;51.318;6.202;2023-05-07T01:41:00;14.50;99.90
3281;DHT22;1652;51.318;6.202;2023-05-07T01:43:29;14.50;99.90
3281;DHT22;1652;51.318;6.202;2023-05-07T01:45:57;14.50;99.90
3281;DHT22;1652;51.318;6.202;2023-05-07T01:48:24;14.50;99.90
3281;DHT22;1652;51.318;6.202;2023-05-07T01:50:52;14.40;99.90
3281;DHT22;1652;51.318;6.202;2023-05-07T01:53:19;14.30;99.90
3281;DHT22;1652;51.318;6.202;2023-05-07T01:55:46;14.30;99.90
3281;DHT22;1652;51.318;6.202;2023-05-07T01:58:13;14.30;99.90
3281;DHT22;1652;51.318;6.202;2023-05-07T02:00:40;14.20;99.90
3281;DHT22;1652;51.318;6.202;2023-05-07T02:03:07;14.20;99.90
3281;DHT22;1652;51.318;6.202;2023-05-07T02:05:34;14.20;99.90
3281;DHT22;1652;51.318;6.202;2023-05-07T02:08:01;14.20;99.90
3281;DHT22;1652;51.318;6.202;2023-05-07T02:10:28;14.10;99.90
3281;DHT22;1652;51.318;6.202;2023-05-07T02:12:55;14.20;99.90
3281;DHT22;1652;51.318;6.202;2023-05-07T02:15:22;14.30;99.90
3281;DHT22;1652;51.318;6.202;2023-05-07T02:18:06;14.40;99.90
3281;DHT22;1652;51.318;6.202;2023-05-07T02:20:46;14.50;99.90
3281;DHT22;1652;51.318;6.202;2023-05-07T02:23:13;14.50;99.90
3281;DHT22;1652;51.318;6.202;2023-05-07T02:25:40;14.40;99.90
3281;DHT22;1652;51.318;6.202;2023-05-07T02:28:07;14.30;99.90
3281;DHT22;1652;51.318;6.202;2023-05-07T02:30:33;14.40;99.90
3281;DHT22;1652;51.318;6.202;2023-05-07T02:33:00;14.30;99.90
3281;DHT22;1652;51.318;6.202;2023-05-07T02:35:27;14.20;99.90
3281;DHT22;1652;51.318;6.202;2023-05-07T02:37:54;14.30;99.90
3281;DHT22;1652;51.318;6.202;2023-05-07T02:40:21;14.30;99.90
3281;DHT22;1652;51.318;6.202;2023-05-07T02:42:48;14.20;99.90
3281;DHT22;1652;51.318;6.202;2023-05-07T02:45:15;14.20;99.90
3281;DHT22;1652;51.318;6.202;2023-05-07T02:47:42;14.20;99.90
3281;DHT22;1652;51.318;6.202;2023-05-07T02:50:09;14.20;99.90
3281;DHT22;1652;51.318;6.202;2023-05-07T02:52:36;14.20;99.90
3281;DHT22;1652;51.318;6.202;2023-05-07T02:55:04;14.10;99.90
3281;DHT22;1652;51.318;6.202;2023-05-07T02:57:31;14.00;99.90
3281;DHT22;1652;51.318;6.202;2023-05-07T02:59:58;14.00;99.90
3281;DHT22;1652;51.318;6.202;2023-05-07T03:02:25;14.00;99.90
3281;DHT22;1652;51.318;6.202;2023-05-07T03:04:52;13.90;99.90
3281;DHT22;1652;51.318;6.202;2023-05-07T03:07:19;13.80;99.90
3281;DHT22;1652;51.318;6.202;2023-05-07T03:09:46;13.80;99.90
3281;DHT22;1652;51.318;6.202;2023-05-07T03:12:13;13.80;99.90
3281;DHT22;1652;51.318;6.202;2023-05-07T03:14:40;14.00;99.90
3281;DHT22;1652;51.318;6.202;2023-05-07T03:17:07;14.20;99.90
3281;DHT22;1652;51.318;6.202;2023-05-07T03:19:34;14.10;99.90
3281;DHT22;1652;51.318;6.202;2023-05-07T03:22:00;14.10;99.90
3281;DHT22;1652;51.318;6.202;2023-05-07T03:24:27;14.10;99.90
3281;DHT22;1652;51.318;6.202;2023-05-07T03:26:54;14.30;99.90
3281;DHT22;1652;51.318;6.202;2023-05-07T03:29:21;14.40;99.90
3281;DHT22;1652;51.318;6.202;2023-05-07T03:31:48;14.40;99.90
3281;DHT22;1652;51.318;6.202;2023-05-07T03:34:15;14.50;99.90
3281;DHT22;1652;51.318;6.202;2023-05-07T03:36:43;14.50;99.90
3281;DHT22;1652;51.318;6.202;2023-05-07T03:39:10;14.40;99.90
3281;DHT22;1652;51.318;6.202;2023-05-07T03:41:37;14.20;99.90
3281;DHT22;1652;51.318;6.202;2023-05-07T03:44:04;14.10;99.90
3281;DHT22;1652;51.318;6.202;2023-05-07T03:46:31;14.10;99.90
3281;DHT22;1652;51.318;6.202;2023-05-07T03:48:59;14.10;99.90
3281;DHT22;1652;51.318;6.202;2023-05-07T03:51:26;14.30;99.90
3281;DHT22;1652;51.318;6.202;2023-05-07T03:53:53;14.20;99.90
3281;DHT22;1652;51.318;6.202;2023-05-07T03:56:20;14.20;99.90
3281;DHT22;1652;51.318;6.202;2023-05-07T03:58:47;14.40;99.90
3281;DHT22;1652;51.318;6.202;2023-05-07T04:01:14;14.40;99.90
3281;DHT22;1652;51.318;6.202;2023-05-07T04:03:41;14.40;99.90
3281;DHT22;1652;51.318;6.202;2023-05-07T04:06:08;14.50;99.90
3281;DHT22;1652;51.318;6.202;2023-05-07T04:08:35;14.50;99.90
3281;DHT22;1652;51.318;6.202;2023-05-07T04:11:02;14.50;99.90
3281;DHT22;1652;51.318;6.202;2023-05-07T04:13:30;14.60;99.90
3281;DHT22;1652;51.318;6.202;2023-05-07T04:15:57;14.60;99.90
3281;DHT22;1652;51.318;6.202;2023-05-07T04:18:23;14.60;99.90
3281;DHT22;1652;51.318;6.202;2023-05-07T04:20:50;14.60;99.90
3281;DHT22;1652;51.318;6.202;2023-05-07T04:23:17;14.60;99.90
3281;DHT22;1652;51.318;6.202;2023-05-07T04:25:44;14.50;99.90
3281;DHT22;1652;51.318;6.202;2023-05-07T04:28:12;14.60;99.90
3281;DHT22;1652;51.318;6.202;2023-05-07T04:30:39;14.60;99.90
3281;DHT22;1652;51.318;6.202;2023-05-07T04:33:06;14.60;99.90
3281;DHT22;1652;51.318;6.202;2023-05-07T04:35:33;14.50;99.90
3281;DHT22;1652;51.318;6.202;2023-05-07T04:38:00;14.50;99.90
3281;DHT22;1652;51.318;6.202;2023-05-07T04:40:28;14.50;99.90
3281;DHT22;1652;51.318;6.202;2023-05-07T04:42:55;14.60;99.90
3281;DHT22;1652;51.318;6.202;2023-05-07T04:45:22;14.60;99.90
3281;DHT22;1652;51.318;6.202;2023-05-07T04:47:48;14.60;99.90
3281;DHT22;1652;51.318;6.202;2023-05-07T04:50:15;14.60;99.90
3281;DHT22;1652;51.318;6.202;2023-05-07T04:52:42;14.60;99.90
3281;DHT22;1652;51.318;6.202;2023-05-07T04:55:09;14.70;99.90
3281;DHT22;1652;51.318;6.202;2023-05-07T04:57:36;14.70;99.90
3281;DHT22;1652;51.318;6.202;2023-05-07T05:00:08;14.70;99.90
3281;DHT22;1652;51.318;6.202;2023-05-07T05:02:36;14.90;99.90
3281;DHT22;1652;51.318;6.202;2023-05-07T05:05:03;14.80;99.90
3281;DHT22;1652;51.318;6.202;2023-05-07T05:07:30;15.00;99.90
3281;DHT22;1652;51.318;6.202;2023-05-07T05:09:57;14.90;99.90
3281;DHT22;1652;51.318;6.202;2023-05-07T05:12:24;15.00;99.90
3281;DHT22;1652;51.318;6.202;2023-05-07T05:14:51;14.90;99.90
3281;DHT22;1652;51.318;6.202;2023-05-07T05:17:18;15.10;99.90
3281;DHT22;1652;51.318;6.202;2023-05-07T05:19:45;15.20;99.90
3281;DHT22;1652;51.318;6.202;2023-05-07T05:22:12;15.40;99.90
3281;DHT22;1652;51.318;6.202;2023-05-07T05:24:39;15.60;99.90
3281;DHT22;1652;51.318;6.202;2023-05-07T05:27:06;15.60;99.90
3281;DHT22;1652;51.318;6.202;2023-05-07T05:29:33;15.60;99.90
3281;DHT22;1652;51.318;6.202;2023-05-07T05:32:00;15.90;99.90
3281;DHT22;1652;51.318;6.202;2023-05-07T05:34:26;16.30;99.90
3281;DHT22;1652;51.318;6.202;2023-05-07T05:36:54;16.70;99.90
3281;DHT22;1652;51.318;6.202;2023-05-07T05:39:21;17.30;99.90
3281;DHT22;1652;51.318;6.202;2023-05-07T05:41:49;18.10;99.90
3281;DHT22;1652;51.318;6.202;2023-05-07T05:44:16;18.70;99.90
3281;DHT22;1652;51.318;6.202;2023-05-07T05:46:43;18.80;99.90
3281;DHT22;1652;51.318;6.202;2023-05-07T05:49:10;18.50;99.90
3281;DHT22;1652;51.318;6.202;2023-05-07T05:51:37;18.30;99.90
3281;DHT22;1652;51.318;6.202;2023-05-07T05:54:04;18.20;99.90
3281;DHT22;1652;51.318;6.202;2023-05-07T05:56:31;18.00;99.90
3281;DHT22;1652;51.318;6.202;2023-05-07T05:58:58;17.70;99.90
3281;DHT22;1652;51.318;6.202;2023-05-07T06:01:25;17.70;99.90
3281;DHT22;1652;51.318;6.202;2023-05-07T06:03:52;17.70;99.90
3281;DHT22;1652;51.318;6.202;2023-05-07T06:06:19;17.50;99.90
3281;DHT22;1652;51.318;6.202;2023-05-07T06:08:45;17.60;99.90
3281;DHT22;1652;51.318;6.202;2023-05-07T06:11:12;17.50;99.90
3281;DHT22;1652;51.318;6.202;2023-05-07T06:13:39;17.60;99.90
3281;DHT22;1652;51.318;6.202;2023-05-07T06:16:06;17.60;99.90
3281;DHT22;1652;51.318;6.202;2023-05-07T06:18:33;17.60;99.90
3281;DHT22;1652;51.318;6.202;2023-05-07T06:21:02;17.50;99.90
3281;DHT22;1652;51.318;6.202;2023-05-07T06:23:29;17.20;99.90
3281;DHT22;1652;51.318;6.202;2023-05-07T06:25:56;17.00;99.90
3281;DHT22;1652;51.318;6.202;2023-05-07T06:28:23;16.90;99.90
3281;DHT22;1652;51.318;6.202;2023-05-07T06:30:50;16.90;99.90
3281;DHT22;1652;51.318;6.202;2023-05-07T06:33:17;17.10;99.90
3281;DHT22;1652;51.318;6.202;2023-05-07T06:35:44;17.30;99.90
3281;DHT22;1652;51.318;6.202;2023-05-07T06:38:11;17.50;99.90
3281;DHT22;1652;51.318;6.202;2023-05-07T06:40:38;17.90;99.90
3281;DHT22;1652;51.318;6.202;2023-05-07T06:43:05;18.20;99.90
3281;DHT22;1652;51.318;6.202;2023-05-07T06:45:32;18.30;99.90
3281;DHT22;1652;51.318;6.202;2023-05-07T06:47:59;18.50;99.90
3281;DHT22;1652;51.318;6.202;2023-05-07T06:50:26;18.80;99.90
3281;DHT22;1652;51.318;6.202;2023-05-07T06:52:53;19.30;99.90
3281;DHT22;1652;51.318;6.202;2023-05-07T06:55:20;19.70;99.90
3281;DHT22;1652;51.318;6.202;2023-05-07T06:57:49;19.60;99.90
3281;DHT22;1652;51.318;6.202;2023-05-07T07:00:17;19.60;99.90
3281;DHT22;1652;51.318;6.202;2023-05-07T07:02:44;19.70;99.90
3281;DHT22;1652;51.318;6.202;2023-05-07T07:05:11;19.50;99.90
3281;DHT22;1652;51.318;6.202;2023-05-07T07:07:38;19.50;99.90
3281;DHT22;1652;51.318;6.202;2023-05-07T07:10:05;19.60;99.90
3281;DHT22;1652;51.318;6.202;2023-05-07T07:12:32;19.70;99.90
3281;DHT22;1652;51.318;6.202;2023-05-07T07:14:59;19.80;99.90
3281;DHT22;1652;51.318;6.202;2023-05-07T07:17:26;20.10;99.90
3281;DHT22;1652;51.318;6.202;2023-05-07T07:19:53;20.20;99.90
3281;DHT22;1652;51.318;6.202;2023-05-07T07:22:20;20.40;99.90
3281;DHT22;1652;51.318;6.202;2023-05-07T07:24:46;20.50;99.90
3281;DHT22;1652;51.318;6.202;2023-05-07T07:27:13;20.80;99.90
3281;DHT22;1652;51.318;6.202;2023-05-07T07:29:40;20.80;99.90
3281;DHT22;1652;51.318;6.202;2023-05-07T07:32:07;20.70;99.90
3281;DHT22;1652;51.318;6.202;2023-05-07T07:34:34;20.90;99.90
3281;DHT22;1652;51.318;6.202;2023-05-07T07:37:01;20.90;99.90
3281;DHT22;1652;51.318;6.202;2023-05-07T07:39:32;20.70;99.90
3281;DHT22;1652;51.318;6.202;2023-05-07T07:41:59;20.70;99.90
3281;DHT22;1652;51.318;6.202;2023-05-07T07:44:27;20.80;99.90
3281;DHT22;1652;51.318;6.202;2023-05-07T07:46:54;20.70;99.90
3281;DHT22;1652;51.318;6.202;2023-05-07T07:49:22;20.80;99.90
3281;DHT22;1652;51.318;6.202;2023-05-07T07:51:49;20.80;99.90
3281;DHT22;1652;51.318;6.202;2023-05-07T07:54:15;20.70;99.90
3281;DHT22;1652;51.318;6.202;2023-05-07T07:56:43;20.90;99.90
3281;DHT22;1652;51.318;6.202;2023-05-07T07:59:09;20.80;99.90
3281;DHT22;1652;51.318;6.202;2023-05-07T08:01:36;20.80;99.90
3281;DHT22;1652;51.318;6.202;2023-05-07T08:04:03;21.40;99.90
3281;DHT22;1652;51.318;6.202;2023-05-07T08:06:32;21.80;99.90
3281;DHT22;1652;51.318;6.202;2023-05-07T08:08:59;21.90;99.90
3281;DHT22;1652;51.318;6.202;2023-05-07T08:11:26;21.70;99.90
3281;DHT22;1652;51.318;6.202;2023-05-07T08:13:54;21.90;99.90
3281;DHT22;1652;51.318;6.202;2023-05-07T08:16:21;22.00;99.90
3281;DHT22;1652;51.318;6.202;2023-05-07T08:18:49;22.40;99.90
3281;DHT22;1652;51.318;6.202;2023-05-07T08:21:16;22.60;99.90
3281;DHT22;1652;51.318;6.202;2023-05-07T08:23:43;23.20;99.90
3281;DHT22;1652;51.318;6.202;2023-05-07T08:26:11;23.60;99.90
3281;DHT22;1652;51.318;6.202;2023-05-07T08:28:37;23.60;99.90
3281;DHT22;1652;51.318;6.202;2023-05-07T08:31:05;23.80;99.90
3281;DHT22;1652;51.318;6.202;2023-05-07T08:33:32;24.20;99.90
3281;DHT22;1652;51.318;6.202;2023-05-07T08:35:59;24.30;99.90
3281;DHT22;1652;51.318;6.202;2023-05-07T08:38:25;24.10;99.90
3281;DHT22;1652;51.318;6.202;2023-05-07T08:40:52;23.70;99.90
3281;DHT22;1652;51.318;6.202;2023-05-07T08:43:20;23.60;99.90
3281;DHT22;1652;51.318;6.202;2023-05-07T08:45:49;23.20;99.90
3281;DHT22;1652;51.318;6.202;2023-05-07T08:48:22;23.10;99.90
3281;DHT22;1652;51.318;6.202;2023-05-07T08:50:49;23.30;99.90
3281;DHT22;1652;51.318;6.202;2023-05-07T08:53:16;22.80;99.90
3281;DHT22;1652;51.318;6.202;2023-05-07T08:55:43;22.60;99.90
3281;DHT22;1652;51.318;6.202;2023-05-07T08:58:11;22.60;99.90
3281;DHT22;1652;51.318;6.202;2023-05-07T09:00:40;22.50;99.90
3281;DHT22;1652;51.318;6.202;2023-05-07T09:03:07;22.50;99.90
3281;DHT22;1652;51.318;6.202;2023-05-07T09:05:34;23.10;99.90
3281;DHT22;1652;51.318;6.202;2023-05-07T09:08:06;23.40;99.90
3281;DHT22;1652;51.318;6.202;2023-05-07T09:10:34;24.20;99.90
3281;DHT22;1652;51.318;6.202;2023-05-07T09:13:02;24.50;99.90
3281;DHT22;1652;51.318;6.202;2023-05-07T09:15:29;24.40;99.90
3281;DHT22;1652;51.318;6.202;2023-05-07T09:18:00;23.90;99.90
3281;DHT22;1652;51.318;6.202;2023-05-07T09:20:37;23.30;99.90
3281;DHT22;1652;51.318;6.202;2023-05-07T09:23:05;22.80;99.90
3281;DHT22;1652;51.318;6.202;2023-05-07T09:25:34;22.60;99.90
3281;DHT22;1652;51.318;6.202;2023-05-07T09:28:03;22.90;99.90
3281;DHT22;1652;51.318;6.202;2023-05-07T09:30:31;22.70;99.90
3281;DHT22;1652;51.318;6.202;2023-05-07T09:32:59;22.60;99.90
3281;DHT22;1652;51.318;6.202;2023-05-07T09:35:27;23.10;99.90
3281;DHT22;1652;51.318;6.202;2023-05-07T09:37:55;23.20;99.90
3281;DHT22;1652;51.318;6.202;2023-05-07T09:40:27;23.40;99.90
3281;DHT22;1652;51.318;6.202;2023-05-07T09:42:54;23.40;99.90
3281;DHT22;1652;51.318;6.202;2023-05-07T09:45:28;23.40;99.90
3281;DHT22;1652;51.318;6.202;2023-05-07T09:47:57;23.60;99.90
3281;DHT22;1652;51.318;6.202;2023-05-07T09:50:29;23.60;99.90
3281;DHT22;1652;51.318;6.202;2023-05-07T09:52:57;23.50;99.90
3281;DHT22;1652;51.318;6.202;2023-05-07T09:55:24;23.50;99.90
3281;DHT22;1652;51.318;6.202;2023-05-07T09:57:53;23.50;99.90
3281;DHT22;1652;51.318;6.202;2023-05-07T10:00:21;23.20;99.90
3281;DHT22;1652;51.318;6.202;2023-05-07T10:02:49;23.10;99.90
3281;DHT22;1652;51.318;6.202;2023-05-07T10:05:19;22.90;99.90
3281;DHT22;1652;51.318;6.202;2023-05-07T10:07:50;22.80;99.90
3281;DHT22;1652;51.318;6.202;2023-05-07T10:10:17;22.60;99.90
3281;DHT22;1652;51.318;6.202;2023-05-07T10:12:45;22.50;99.90
3281;DHT22;1652;51.318;6.202;2023-05-07T10:15:12;22.60;99.90
3281;DHT22;1652;51.318;6.202;2023-05-07T10:17:41;22.40;99.90
3281;DHT22;1652;51.318;6.202;2023-05-07T10:20:08;22.30;99.90
3281;DHT22;1652;51.318;6.202;2023-05-07T10:22:44;22.00;99.90
3281;DHT22;1652;51.318;6.202;2023-05-07T10:25:31;22.30;99.90
3281;DHT22;1652;51.318;6.202;2023-05-07T10:28:06;22.50;99.90
3281;DHT22;1652;51.318;6.202;2023-05-07T10:30:48;22.50;99.90
3281;DHT22;1652;51.318;6.202;2023-05-07T10:33:23;22.60;99.90
3281;DHT22;1652;51.318;6.202;2023-05-07T10:35:57;22.60;99.90
3281;DHT22;1652;51.318;6.202;2023-05-07T10:38:26;22.80;99.90
3281;DHT22;1652;51.318;6.202;2023-05-07T10:40:53;23.10;99.90
3281;DHT22;1652;51.318;6.202;2023-05-07T10:43:21;23.00;99.90
3281;DHT22;1652;51.318;6.202;2023-05-07T10:46:10;23.10;99.90
3281;DHT22;1652;51.318;6.202;2023-05-07T10:51:30;23.70;99.90
3281;DHT22;1652;51.318;6.202;2023-05-07T10:56:37;23.70;99.90
3281;DHT22;1652;51.318;6.202;2023-05-07T10:59:31;23.70;99.90
3281;DHT22;1652;51.318;6.202;2023-05-07T11:02:03;23.60;99.90
3281;DHT22;1652;51.318;6.202;2023-05-07T11:04:31;23.60;99.90
3281;DHT22;1652;51.318;6.202;2023-05-07T11:15:07;23.70;99.90
3281;DHT22;1652;51.318;6.202;2023-05-07T11:17:51;23.60;99.90
3281;DHT22;1652;51.318;6.202;2023-05-07T11:20:19;23.60;99.90
3281;DHT22;1652;51.318;6.202;2023-05-07T11:22:47;23.70;99.90
3281;DHT22;1652;51.318;6.202;2023-05-07T11:25:18;23.80;99.90
3281;DHT22;1652;51.318;6.202;2023-05-07T11:27:48;23.80;99.90
3281;DHT22;1652;51.318;6.202;2023-05-07T11:30:18;24.10;99.90
3281;DHT22;1652;51.318;6.202;2023-05-07T11:32:48;24.20;99.90
3281;DHT22;1652;51.318;6.202;2023-05-07T11:35:15;24.20;99.90
3281;DHT22;1652;51.318;6.202;2023-05-07T11:37:44;24.10;99.90
3281;DHT22;1652;51.318;6.202;2023-05-07T11:40:12;24.00;99.90
3281;DHT22;1652;51.318;6.202;2023-05-07T11:42:41;23.70;99.90
3281;DHT22;1652;51.318;6.202;2023-05-07T11:45:10;23.40;99.90
3281;DHT22;1652;51.318;6.202;2023-05-07T11:47:37;23.20;99.90
3281;DHT22;1652;51.318;6.202;2023-05-07T11:50:06;23.30;99.90
3281;DHT22;1652;51.318;6.202;2023-05-07T11:52:35;23.40;99.90
3281;DHT22;1652;51.318;6.202;2023-05-07T11:55:02;23.30;99.90
3281;DHT22;1652;51.318;6.202;2023-05-07T11:57:33;23.40;99.90
3281;DHT22;1652;51.318;6.202;2023-05-07T12:00:00;23.20;99.90
3281;DHT22;1652;51.318;6.202;2023-05-07T12:02:30;23.40;99.90
3281;DHT22;1652;51.318;6.202;2023-05-07T12:05:00;23.50;99.90
3281;DHT22;1652;51.318;6.202;2023-05-07T12:07:27;23.40;99.90
3281;DHT22;1652;51.318;6.202;2023-05-07T12:09:57;23.40;99.90
3281;DHT22;1652;51.318;6.202;2023-05-07T12:12:23;23.40;99.90
3281;DHT22;1652;51.318;6.202;2023-05-07T12:14:51;23.50;99.90
3281;DHT22;1652;51.318;6.202;2023-05-07T12:17:18;23.50;99.90
3281;DHT22;1652;51.318;6.202;2023-05-07T12:19:46;23.00;99.90
3281;DHT22;1652;51.318;6.202;2023-05-07T12:22:13;23.10;99.90
3281;DHT22;1652;51.318;6.202;2023-05-07T12:24:47;23.10;99.90
3281;DHT22;1652;51.318;6.202;2023-05-07T12:27:15;22.80;99.90
3281;DHT22;1652;51.318;6.202;2023-05-07T12:29:46;22.60;99.90
3281;DHT22;1652;51.318;6.202;2023-05-07T12:32:18;22.70;99.90
3281;DHT22;1652;51.318;6.202;2023-05-07T12:34:46;22.90;99.90
3281;DHT22;1652;51.318;6.202;2023-05-07T12:37:13;22.90;99.90
3281;DHT22;1652;51.318;6.202;2023-05-07T12:40:03;22.70;99.90
3281;DHT22;1652;51.318;6.202;2023-05-07T12:42:33;22.70;99.90
3281;DHT22;1652;51.318;6.202;2023-05-07T12:45:12;22.90;99.90
3281;DHT22;1652;51.318;6.202;2023-05-07T12:47:44;22.70;99.90
3281;DHT22;1652;51.318;6.202;2023-05-07T12:50:13;22.70;99.90
3281;DHT22;1652;51.318;6.202;2023-05-07T12:52:40;22.60;99.90
3281;DHT22;1652;51.318;6.202;2023-05-07T12:55:08;22.80;99.90
3281;DHT22;1652;51.318;6.202;2023-05-07T12:57:43;22.80;99.90
3281;DHT22;1652;51.318;6.202;2023-05-07T13:00:12;22.50;99.90
3281;DHT22;1652;51.318;6.202;2023-05-07T13:02:41;22.40;99.90
3281;DHT22;1652;51.318;6.202;2023-05-07T13:05:08;22.50;99.90
3281;DHT22;1652;51.318;6.202;2023-05-07T13:07:36;22.60;99.90
3281;DHT22;1652;51.318;6.202;2023-05-07T13:10:04;22.50;99.90
3281;DHT22;1652;51.318;6.202;2023-05-07T13:12:31;22.40;99.90
3281;DHT22;1652;51.318;6.202;2023-05-07T13:14:58;22.40;99.90
3281;DHT22;1652;51.318;6.202;2023-05-07T13:17:25;22.40;99.90
3281;DHT22;1652;51.318;6.202;2023-05-07T13:19:53;22.30;99.90
3281;DHT22;1652;51.318;6.202;2023-05-07T13:22:19;22.20;99.90
3281;DHT22;1652;51.318;6.202;2023-05-07T13:24:46;22.20;99.90
3281;DHT22;1652;51.318;6.202;2023-05-07T13:27:13;22.20;99.90
3281;DHT22;1652;51.318;6.202;2023-05-07T13:29:40;22.20;99.90
3281;DHT22;1652;51.318;6.202;2023-05-07T13:32:07;22.20;99.90
3281;DHT22;1652;51.318;6.202;2023-05-07T13:34:34;22.10;99.90
3281;DHT22;1652;51.318;6.202;2023-05-07T13:37:01;22.00;99.90
3281;DHT22;1652;51.318;6.202;2023-05-07T13:39:28;22.00;99.90
3281;DHT22;1652;51.318;6.202;2023-05-07T13:41:54;22.00;99.90
3281;DHT22;1652;51.318;6.202;2023-05-07T13:44:21;22.10;99.90
3281;DHT22;1652;51.318;6.202;2023-05-07T13:46:48;22.10;99.90
3281;DHT22;1652;51.318;6.202;2023-05-07T13:49:15;22.00;99.90
3281;DHT22;1652;51.318;6.202;2023-05-07T13:51:42;22.00;99.90
3281;DHT22;1652;51.318;6.202;2023-05-07T13:54:09;21.90;99.90
3281;DHT22;1652;51.318;6.202;2023-05-07T13:56:36;21.80;99.90
3281;DHT22;1652;51.318;6.202;2023-05-07T13:59:03;21.70;99.90
3281;DHT22;1652;51.318;6.202;2023-05-07T14:01:31;21.70;99.90
3281;DHT22;1652;51.318;6.202;2023-05-07T14:03:58;21.80;99.90
3281;DHT22;1652;51.318;6.202;2023-05-07T14:06:26;21.80;99.90
3281;DHT22;1652;51.318;6.202;2023-05-07T14:08:53;21.90;99.90
3281;DHT22;1652;51.318;6.202;2023-05-07T14:11:20;22.10;99.90
3281;DHT22;1652;51.318;6.202;2023-05-07T14:13:47;22.20;99.90
3281;DHT22;1652;51.318;6.202;2023-05-07T14:16:14;22.20;99.90
3281;DHT22;1652;51.318;6.202;2023-05-07T14:18:41;22.30;99.90
3281;DHT22;1652;51.318;6.202;2023-05-07T14:21:08;22.40;99.90
3281;DHT22;1652;51.318;6.202;2023-05-07T14:23:36;22.40;99.90
3281;DHT22;1652;51.318;6.202;2023-05-07T14:26:03;22.30;99.90
3281;DHT22;1652;51.318;6.202;2023-05-07T14:28:30;22.10;99.90
3281;DHT22;1652;51.318;6.202;2023-05-07T14:30:57;21.90;99.90
3281;DHT22;1652;51.318;6.202;2023-05-07T14:33:24;21.80;99.90
3281;DHT22;1652;51.318;6.202;2023-05-07T14:35:51;21.70;99.90
3281;DHT22;1652;51.318;6.202;2023-05-07T14:38:18;21.60;99.90
3281;DHT22;1652;51.318;6.202;2023-05-07T14:40:45;21.50;99.90
3281;DHT22;1652;51.318;6.202;2023-05-07T14:43:12;21.40;99.90
3281;DHT22;1652;51.318;6.202;2023-05-07T14:45:39;21.50;99.90
3281;DHT22;1652;51.318;6.202;2023-05-07T14:48:06;21.50;99.90
3281;DHT22;1652;51.318;6.202;2023-05-07T14:50:33;21.60;99.90
3281;DHT22;1652;51.318;6.202;2023-05-07T14:53:00;21.70;99.90
3281;DHT22;1652;51.318;6.202;2023-05-07T14:55:26;21.50;99.90
3281;DHT22;1652;51.318;6.202;2023-05-07T14:57:53;21.40;99.90
3281;DHT22;1652;51.318;6.202;2023-05-07T15:00:20;21.30;99.90
3281;DHT22;1652;51.318;6.202;2023-05-07T15:02:47;21.20;99.90
3281;DHT22;1652;51.318;6.202;2023-05-07T15:05:14;21.20;99.90
3281;DHT22;1652;51.318;6.202;2023-05-07T15:07:41;21.30;99.90
3281;DHT22;1652;51.318;6.202;2023-05-07T15:10:08;21.20;99.90
3281;DHT22;1652;51.318;6.202;2023-05-07T15:12:35;21.10;99.90
3281;DHT22;1652;51.318;6.202;2023-05-07T15:15:02;21.20;99.90
3281;DHT22;1652;51.318;6.202;2023-05-07T15:17:29;21.20;99.90
3281;DHT22;1652;51.318;6.202;2023-05-07T15:19:56;21.10;99.90
3281;DHT22;1652;51.318;6.202;2023-05-07T15:22:23;21.10;99.90
3281;DHT22;1652;51.318;6.202;2023-05-07T15:24:50;21.20;99.90
3281;DHT22;1652;51.318;6.202;2023-05-07T15:27:17;21.20;99.90
3281;DHT22;1652;51.318;6.202;2023-05-07T15:29:44;21.20;99.90
3281;DHT22;1652;51.318;6.202;2023-05-07T15:32:11;21.20;99.90
3281;DHT22;1652;51.318;6.202;2023-05-07T15:34:38;21.40;99.90
3281;DHT22;1652;51.318;6.202;2023-05-07T15:37:05;21.30;99.90
3281;DHT22;1652;51.318;6.202;2023-05-07T15:39:32;21.30;99.90
3281;DHT22;1652;51.318;6.202;2023-05-07T15:41:59;21.20;99.90
3281;DHT22;1652;51.318;6.202;2023-05-07T15:44:26;21.20;99.90
3281;DHT22;1652;51.318;6.202;2023-05-07T15:46:55;21.30;99.90
3281;DHT22;1652;51.318;6.202;2023-05-07T15:49:22;21.30;99.90
3281;DHT22;1652;51.318;6.202;2023-05-07T15:51:49;21.50;99.90
3281;DHT22;1652;51.318;6.202;2023-05-07T15:54:17;21.60;99.90
3281;DHT22;1652;51.318;6.202;2023-05-07T15:56:47;21.70;99.90
3281;DHT22;1652;51.318;6.202;2023-05-07T15:59:15;21.70;99.90
3281;DHT22;1652;51.318;6.202;2023-05-07T16:01:42;21.60;99.90
3281;DHT22;1652;51.318;6.202;2023-05-07T16:04:11;21.60;99.90
3281;DHT22;1652;51.318;6.202;2023-05-07T16:06:38;21.50;99.90
3281;DHT22;1652;51.318;6.202;2023-05-07T16:09:05;21.50;99.90
3281;DHT22;1652;51.318;6.202;2023-05-07T16:11:31;21.40;99.90
3281;DHT22;1652;51.318;6.202;2023-05-07T16:13:59;21.40;99.90
3281;DHT22;1652;51.318;6.202;2023-05-07T16:16:27;21.30;99.90
3281;DHT22;1652;51.318;6.202;2023-05-07T16:18:55;21.20;99.90
3281;DHT22;1652;51.318;6.202;2023-05-07T16:21:23;21.20;99.90